Terminal Aerodrome Forecast
Issued by NWS

Home | Current Version | Previous Version | Text Only | Print | Product List | Glossary On
Versions: 1 2 3 4 5 6 7 8 9 10 11 12
000
FTUS46 KMTR 292348
TAFMRY
TAF
KMRY 292348Z 3000/3024 27009G15KT P6SM FEW030 SCT250
     FM300400 23005KT P6SM FEW250
      TEMPO 3009/3013 BKN009
     FM301300 VRB04KT P6SM FEW008
     FM301700 29007KT P6SM SKC=

USA.gov is the U.S. government's official web portal to all federal, state and local government web resources and services.